createdAt,value
2023-08-05T17:31:39.644Z,99693.84
2023-08-05T17:34:06.488Z,99703.31
2023-08-05T17:36:33.004Z,99703.22
2023-08-05T17:38:59.535Z,99704.44
2023-08-05T17:41:26.000Z,99704.28
2023-08-05T17:43:52.510Z,99698.44
2023-08-05T17:46:19.069Z,99692.50
2023-08-05T17:48:45.577Z,99700.69
2023-08-05T17:51:12.211Z,99689.75
2023-08-05T17:53:38.721Z,99647.63
2023-08-05T17:56:05.219Z,99692.38
2023-08-05T17:58:31.731Z,99686.22
2023-08-05T18:00:58.337Z,99693.66
2023-08-05T18:03:24.881Z,99659.19
2023-08-05T18:05:54.938Z,99701.69
2023-08-05T18:08:25.875Z,99708.06
2023-08-05T18:10:52.359Z,99706.03
2023-08-05T18:13:18.861Z,99670.56
2023-08-05T18:15:45.416Z,99712.66
2023-08-05T18:18:11.924Z,99667.19
2023-08-05T18:20:38.438Z,99659.41
2023-08-05T18:23:04.982Z,99709.63
2023-08-05T18:25:31.477Z,99708.88
2023-08-05T18:27:58.194Z,99681.09
2023-08-05T18:30:24.831Z,99680.88
2023-08-05T18:32:51.368Z,99702.47
2023-08-05T18:35:17.977Z,99728.41
2023-08-05T18:37:44.422Z,99721.94
2023-08-05T18:40:11.320Z,99721.50
2023-08-05T18:42:37.837Z,99718.19
2023-08-05T18:45:04.731Z,99676.81
2023-08-05T18:47:31.207Z,99727.03
2023-08-05T18:49:57.731Z,99732.03
2023-08-05T18:52:24.249Z,99731.28
2023-08-05T18:54:53.644Z,99738.06
2023-08-05T18:57:20.267Z,99696.97
2023-08-05T18:59:46.706Z,99729.25
2023-08-05T19:02:13.157Z,99727.72
2023-08-05T19:04:43.048Z,99721.78
2023-08-05T19:07:09.666Z,99719.13
2023-08-05T19:09:36.127Z,99722.00
2023-08-05T19:12:02.722Z,99716.25
2023-08-05T19:14:29.209Z,99721.50
2023-08-05T19:16:55.745Z,99715.91
2023-08-05T19:19:22.303Z,99706.59
2023-08-05T19:21:48.774Z,99688.19
2023-08-05T19:24:15.284Z,99720.41
2023-08-05T19:26:41.735Z,99723.88
2023-08-05T19:29:08.215Z,99706.97
2023-08-05T19:31:34.761Z,99709.25
2023-08-05T19:34:01.332Z,99719.47
2023-08-05T19:36:27.783Z,99703.56
2023-08-05T19:38:54.256Z,99714.66
2023-08-05T19:41:20.762Z,99717.09
2023-08-05T19:43:47.306Z,99672.19
2023-08-05T19:46:14.568Z,99674.16
2023-08-05T19:48:44.217Z,99622.91
2023-08-05T19:51:14.296Z,99688.34
2023-08-05T19:53:42.654Z,99705.63
2023-08-05T19:56:09.704Z,99701.88
2023-08-05T19:58:36.510Z,99709.47
2023-08-05T20:01:06.667Z,99664.41
2023-08-05T20:03:34.221Z,99709.59
2023-08-05T20:06:00.710Z,99702.72
2023-08-05T20:08:27.176Z,99690.38
2023-08-05T20:10:53.653Z,99689.56
2023-08-05T20:13:20.135Z,99683.56
2023-08-05T20:15:46.737Z,99664.88
2023-08-05T20:18:13.267Z,99670.06
2023-08-05T20:20:39.802Z,99656.75
2023-08-05T20:23:06.598Z,99666.69
2023-08-05T20:25:35.858Z,99661.47
2023-08-05T20:28:02.395Z,99652.38
2023-08-05T20:30:28.949Z,99665.28
2023-08-05T20:32:57.000Z,99636.91
2023-08-05T20:35:24.056Z,99661.16
2023-08-05T20:37:50.606Z,99653.69
2023-08-05T20:40:17.179Z,99665.84
2023-08-05T20:42:43.776Z,99612.22
2023-08-05T20:45:10.534Z,99653.75
2023-08-05T20:47:37.065Z,99664.88
2023-08-05T20:50:03.712Z,99655.66
2023-08-05T20:52:30.218Z,99652.38
2023-08-05T20:54:57.803Z,99656.75
2023-08-05T20:57:24.606Z,99641.78
2023-08-05T20:59:51.112Z,99644.53
2023-08-05T21:02:19.782Z,99637.75
2023-08-05T21:04:47.714Z,99647.94
2023-08-05T21:07:14.398Z,99634.56
2023-08-05T21:09:41.225Z,99642.84
2023-08-05T21:12:08.410Z,99593.97
2023-08-05T21:14:34.881Z,99636.03
2023-08-05T21:17:01.580Z,99628.22
2023-08-05T21:19:28.092Z,99624.75
2023-08-05T21:21:54.938Z,99589.38
2023-08-05T21:24:21.609Z,99624.78
2023-08-05T21:26:48.108Z,99615.72
2023-08-05T21:29:19.838Z,99620.81
2023-08-05T21:31:46.440Z,99618.50
2023-08-05T21:34:12.916Z,99617.53
2023-08-05T21:36:39.455Z,99610.31
2023-08-05T21:39:06.918Z,99603.50
2023-08-05T21:41:33.505Z,99591.50
2023-08-05T21:43:59.955Z,99560.06
2023-08-05T21:46:26.418Z,99556.59
2023-08-05T21:48:52.934Z,99585.56
2023-08-05T21:51:19.434Z,99591.94
2023-08-05T21:53:45.894Z,99574.72
2023-08-05T21:56:12.371Z,99579.06
2023-08-05T21:58:39.044Z,99567.63
2023-08-05T22:01:05.585Z,99568.16
2023-08-05T22:03:32.221Z,99562.41
2023-08-05T22:06:06.845Z,99537.16
2023-08-05T22:08:36.608Z,99527.91
2023-08-05T22:11:09.245Z,99574.38
2023-08-05T22:13:35.956Z,99578.00
2023-08-05T22:16:02.523Z,99579.84
2023-08-05T22:18:29.097Z,99531.25
2023-08-05T22:20:55.741Z,99531.50
2023-08-05T22:23:22.294Z,99527.50
2023-08-05T22:25:48.848Z,99526.88
2023-08-05T22:28:15.402Z,99526.16
2023-08-05T22:30:43.046Z,99567.00
2023-08-05T22:33:09.621Z,99562.25
2023-08-05T22:35:36.145Z,99565.59
2023-08-05T22:38:02.607Z,99514.16
2023-08-05T22:40:29.253Z,99564.75
2023-08-05T22:42:55.777Z,99562.59
2023-08-05T22:45:23.327Z,99569.50
2023-08-05T22:47:49.861Z,99564.16
2023-08-05T22:50:16.700Z,99566.19
2023-08-05T22:52:43.259Z,99558.00
2023-08-05T22:55:09.825Z,99550.53
2023-08-05T22:57:36.344Z,99559.78
2023-08-05T23:00:02.913Z,99552.78
2023-08-05T23:02:29.467Z,99507.63
2023-08-05T23:04:55.980Z,99543.13
2023-08-05T23:07:22.662Z,99540.97
2023-08-05T23:09:51.754Z,99507.63
2023-08-05T23:12:18.291Z,99535.03
2023-08-05T23:14:45.085Z,99507.72
2023-08-05T23:17:11.579Z,99511.34
2023-08-05T23:19:38.734Z,99517.19
2023-08-05T23:22:05.521Z,99544.78
2023-08-05T23:24:32.062Z,99543.22
2023-08-05T23:26:58.550Z,99552.53
2023-08-05T23:29:25.093Z,99544.41
2023-08-05T23:31:51.733Z,99543.09
2023-08-05T23:34:18.400Z,99530.59
2023-08-05T23:36:44.808Z,99534.97
2023-08-05T23:39:11.264Z,99531.16
2023-08-05T23:41:37.863Z,99530.81
2023-08-05T23:44:04.548Z,99529.34
2023-08-05T23:46:31.033Z,99525.78
2023-08-05T23:48:57.513Z,99529.69
2023-08-05T23:51:24.028Z,99523.78
2023-08-05T23:53:50.981Z,99518.72
2023-08-05T23:56:17.459Z,99516.16
2023-08-05T23:58:44.105Z,99477.41
